UAL361 KDEN-KOMA
Flight info
| Callsign | UAL361 |
|---|---|
| Flight time | 1h 14m |
| Altitude | 39000 |
| Route | CHUWY1 CHUWY HOWRY3 |
| Aircraft | B752/M-SDE3FGHIM3RWXY/LB1 |
Departure
| Time | 2026-05-04 12:18 |
|---|---|
| Airport | Denver International Airport (KDEN) |
Arrival
| Time | 2026-05-04 13:32 |
|---|---|
| Airport | Eppley Airfield (KOMA) |
| Time | Latitude | Longitude | Altitude | Speed | Heading |
|---|---|---|---|---|---|
| 2026-05-04 11:51 | 39.85338 | -104.67995 | 5354 ft | 0 kts | 1° |
| 2026-05-04 12:06 | 39.85328 | -104.67995 | 5354 ft | 2 kts | 0° |
| 2026-05-04 12:07 | 39.85313 | -104.67996 | 5354 ft | 2 kts | 360° |
| 2026-05-04 12:07 | 39.85298 | -104.67996 | 5353 ft | 2 kts | 0° |
| 2026-05-04 12:07 | 39.85283 | -104.67996 | 5353 ft | 2 kts | 0° |
| 2026-05-04 12:07 | 39.85269 | -104.67996 | 5353 ft | 0 kts | 0° |
| 2026-05-04 12:08 | 39.85258 | -104.67996 | 5353 ft | 2 kts | 337° |
| 2026-05-04 12:08 | 39.85246 | -104.67984 | 5354 ft | 2 kts | 307° |
| 2026-05-04 12:08 | 39.85240 | -104.67966 | 5355 ft | 1 kts | 276° |
| 2026-05-04 12:08 | 39.85240 | -104.67959 | 5356 ft | 1 kts | 268° |
| 2026-05-04 12:09 | 39.85240 | -104.67956 | 5356 ft | 0 kts | 270° |
| 2026-05-04 12:12 | 39.85240 | -104.67973 | 5355 ft | 8 kts | 271° |
| 2026-05-04 12:13 | 39.85241 | -104.68114 | 5344 ft | 20 kts | 271° |
| 2026-05-04 12:14 | 39.84528 | -104.68413 | 5319 ft | 17 kts | 180° |
| 2026-05-04 12:15 | 39.84414 | -104.68413 | 5321 ft | 14 kts | 180° |
| 2026-05-04 12:15 | 39.84322 | -104.68414 | 5323 ft | 11 kts | 179° |
| 2026-05-04 12:15 | 39.84249 | -104.68414 | 5325 ft | 9 kts | 180° |
| 2026-05-04 12:15 | 39.84194 | -104.68415 | 5326 ft | 6 kts | 180° |
| 2026-05-04 12:16 | 39.84154 | -104.68416 | 5327 ft | 4 kts | 181° |
| 2026-05-04 12:16 | 39.84110 | -104.68417 | 5328 ft | 9 kts | 181° |
| 2026-05-04 12:16 | 39.84082 | -104.68420 | 5329 ft | 0 kts | 201° |
| 2026-05-04 12:16 | 39.84066 | -104.68469 | 5329 ft | 14 kts | 268° |
| 2026-05-04 12:17 | 39.84071 | -104.68766 | 5330 ft | 62 kts | 270° |
| 2026-05-04 12:17 | 39.84072 | -104.69638 | 5351 ft | 128 kts | 270° |
| 2026-05-04 12:17 | 39.84082 | -104.71027 | 5568 ft | 167 kts | 268° |
| 2026-05-04 12:17 | 39.84066 | -104.72588 | 5634 ft | 180 kts | 267° |
| 2026-05-04 12:18 | 39.84091 | -104.74326 | 6013 ft | 208 kts | 279° |
| 2026-05-04 12:18 | 39.84766 | -104.76109 | 6447 ft | 236 kts | 307° |
| 2026-05-04 12:18 | 39.85958 | -104.77576 | 7461 ft | 236 kts | 318° |
| 2026-05-04 12:18 | 39.87200 | -104.79010 | 8272 ft | 247 kts | 316° |
| 2026-05-04 12:19 | 39.88494 | -104.80555 | 8931 ft | 264 kts | 316° |
| 2026-05-04 12:19 | 39.89887 | -104.82228 | 9769 ft | 274 kts | 316° |
| 2026-05-04 12:19 | 39.91289 | -104.83920 | 10625 ft | 284 kts | 316° |
| 2026-05-04 12:19 | 39.92796 | -104.85745 | 11185 ft | 303 kts | 316° |
| 2026-05-04 12:20 | 39.94385 | -104.87674 | 11673 ft | 323 kts | 316° |
| 2026-05-04 12:20 | 39.96035 | -104.89679 | 12657 ft | 326 kts | 316° |
| 2026-05-04 12:20 | 39.97688 | -104.91690 | 13574 ft | 330 kts | 316° |
| 2026-05-04 12:20 | 39.99481 | -104.93619 | 14343 ft | 339 kts | 328° |
| 2026-05-04 12:21 | 40.01626 | -104.94808 | 15244 ft | 344 kts | 345° |
| 2026-05-04 12:21 | 40.04041 | -104.95127 | 16094 ft | 353 kts | 1° |
| 2026-05-04 12:21 | 40.06450 | -104.94529 | 16889 ft | 361 kts | 15° |
| 2026-05-04 12:21 | 40.08864 | -104.93498 | 17716 ft | 366 kts | 15° |
| 2026-05-04 12:22 | 40.11206 | -104.92159 | 18456 ft | 374 kts | 29° |
| 2026-05-04 12:22 | 40.13324 | -104.90037 | 19162 ft | 383 kts | 38° |
| 2026-05-04 12:22 | 40.15334 | -104.87785 | 19871 ft | 387 kts | 37° |
| 2026-05-04 12:22 | 40.17403 | -104.85474 | 20625 ft | 391 kts | 38° |
| 2026-05-04 12:23 | 40.19465 | -104.83133 | 21255 ft | 398 kts | 41° |
| 2026-05-04 12:23 | 40.21332 | -104.80423 | 21976 ft | 404 kts | 47° |
| 2026-05-04 12:23 | 40.23179 | -104.77586 | 22585 ft | 411 kts | 46° |
| 2026-05-04 12:23 | 40.25024 | -104.74750 | 23355 ft | 414 kts | 46° |
| 2026-05-04 12:24 | 40.26911 | -104.71838 | 23942 ft | 421 kts | 46° |
| 2026-05-04 12:24 | 40.28791 | -104.68925 | 24567 ft | 426 kts | 46° |
| 2026-05-04 12:24 | 40.30711 | -104.65947 | 25123 ft | 432 kts | 46° |
| 2026-05-04 12:24 | 40.32669 | -104.62906 | 25754 ft | 436 kts | 46° |
| 2026-05-04 12:25 | 40.34628 | -104.59862 | 26219 ft | 443 kts | 46° |
| 2026-05-04 12:25 | 40.36613 | -104.56770 | 26748 ft | 448 kts | 46° |
| 2026-05-04 12:25 | 40.38643 | -104.53606 | 27351 ft | 452 kts | 46° |
| 2026-05-04 12:25 | 40.40671 | -104.50441 | 27835 ft | 457 kts | 46° |
| 2026-05-04 12:26 | 40.42723 | -104.47237 | 28314 ft | 463 kts | 45° |
| 2026-05-04 12:26 | 40.44798 | -104.43992 | 28874 ft | 466 kts | 45° |
| 2026-05-04 12:26 | 40.46881 | -104.40733 | 29265 ft | 472 kts | 45° |
| 2026-05-04 12:26 | 40.48999 | -104.37412 | 29836 ft | 474 kts | 45° |
| 2026-05-04 12:27 | 40.51111 | -104.34103 | 30153 ft | 482 kts | 46° |
| 2026-05-04 12:27 | 40.53276 | -104.30701 | 30705 ft | 482 kts | 46° |
| 2026-05-04 12:27 | 40.55433 | -104.27310 | 31039 ft | 488 kts | 46° |
| 2026-05-04 12:27 | 40.57605 | -104.23899 | 31688 ft | 484 kts | 45° |
| 2026-05-04 12:28 | 40.59828 | -104.20673 | 32359 ft | 478 kts | 42° |
| 2026-05-04 12:28 | 40.62075 | -104.17497 | 32903 ft | 478 kts | 42° |
| 2026-05-04 12:28 | 40.64335 | -104.14281 | 33464 ft | 476 kts | 43° |
| 2026-05-04 12:28 | 40.66546 | -104.11130 | 34016 ft | 473 kts | 43° |
| 2026-05-04 12:29 | 40.68775 | -104.07949 | 34448 ft | 474 kts | 43° |
| 2026-05-04 12:29 | 40.71022 | -104.04736 | 34912 ft | 471 kts | 43° |
| 2026-05-04 12:29 | 40.73220 | -104.01588 | 35258 ft | 472 kts | 43° |
| 2026-05-04 12:29 | 40.75442 | -103.98405 | 35685 ft | 469 kts | 42° |
| 2026-05-04 12:30 | 40.77638 | -103.95255 | 35922 ft | 472 kts | 42° |
| 2026-05-04 12:30 | 40.79874 | -103.92046 | 36209 ft | 472 kts | 42° |
| 2026-05-04 12:30 | 40.82060 | -103.88899 | 36689 ft | 469 kts | 42° |
| 2026-05-04 12:30 | 40.84269 | -103.85721 | 37051 ft | 470 kts | 42° |
| 2026-05-04 12:31 | 40.86478 | -103.82542 | 37351 ft | 471 kts | 41° |
| 2026-05-04 12:31 | 40.88661 | -103.79392 | 37781 ft | 469 kts | 41° |
| 2026-05-04 12:31 | 40.90883 | -103.76183 | 38012 ft | 471 kts | 41° |
| 2026-05-04 12:31 | 40.93076 | -103.73016 | 38314 ft | 471 kts | 41° |
| 2026-05-04 12:32 | 40.95280 | -103.69825 | 38648 ft | 470 kts | 41° |
| 2026-05-04 12:32 | 40.99671 | -103.63464 | 39107 ft | 471 kts | 41° |
| 2026-05-04 12:32 | 41.01894 | -103.60236 | 39263 ft | 473 kts | 41° |
| 2026-05-04 12:33 | 41.04092 | -103.57041 | 39596 ft | 471 kts | 41° |
| 2026-05-04 12:33 | 41.06308 | -103.53819 | 39712 ft | 473 kts | 41° |
| 2026-05-04 12:33 | 41.08500 | -103.50628 | 39953 ft | 472 kts | 41° |
| 2026-05-04 12:33 | 41.10720 | -103.47392 | 40162 ft | 472 kts | 41° |
| 2026-05-04 12:34 | 41.12918 | -103.44183 | 40400 ft | 471 kts | 41° |
| 2026-05-04 12:34 | 41.15131 | -103.40950 | 40616 ft | 470 kts | 41° |
| 2026-05-04 12:34 | 41.17325 | -103.37742 | 40728 ft | 472 kts | 41° |
| 2026-05-04 12:34 | 41.19521 | -103.34527 | 40928 ft | 468 kts | 42° |
| 2026-05-04 12:35 | 41.21693 | -103.31343 | 40906 ft | 467 kts | 42° |
| 2026-05-04 12:35 | 41.26090 | -103.24893 | 40896 ft | 471 kts | 42° |
| 2026-05-04 12:36 | 41.30439 | -103.18494 | 40889 ft | 469 kts | 42° |
| 2026-05-04 12:36 | 41.34834 | -103.12015 | 40886 ft | 469 kts | 43° |
| 2026-05-04 12:37 | 41.39198 | -103.05569 | 40882 ft | 470 kts | 42° |
| 2026-05-04 12:37 | 41.43567 | -102.99101 | 40869 ft | 468 kts | 43° |
| 2026-05-04 12:38 | 41.47728 | -102.92447 | 40881 ft | 474 kts | 53° |
| 2026-05-04 12:38 | 41.50428 | -102.84381 | 40888 ft | 485 kts | 73° |
| 2026-05-04 12:39 | 41.51171 | -102.75440 | 40868 ft | 489 kts | 88° |
| 2026-05-04 12:39 | 41.51198 | -102.66442 | 40849 ft | 488 kts | 88° |
| 2026-05-04 12:40 | 41.51206 | -102.57436 | 40848 ft | 487 kts | 88° |
| 2026-05-04 12:40 | 41.51199 | -102.48427 | 40851 ft | 489 kts | 88° |
| 2026-05-04 12:41 | 41.51185 | -102.39342 | 40856 ft | 488 kts | 88° |
| 2026-05-04 12:41 | 41.51162 | -102.30350 | 40837 ft | 489 kts | 89° |
| 2026-05-04 12:42 | 41.51132 | -102.21278 | 40843 ft | 488 kts | 89° |
| 2026-05-04 12:42 | 41.51095 | -102.12301 | 40835 ft | 488 kts | 89° |
| 2026-05-04 12:43 | 41.51051 | -102.03249 | 40837 ft | 488 kts | 89° |
| 2026-05-04 12:43 | 41.51000 | -101.94216 | 40825 ft | 486 kts | 89° |
| 2026-05-04 12:44 | 41.50941 | -101.85210 | 40831 ft | 487 kts | 89° |
| 2026-05-04 12:44 | 41.50876 | -101.76194 | 40818 ft | 487 kts | 89° |
| 2026-05-04 12:45 | 41.50804 | -101.67167 | 40815 ft | 488 kts | 89° |
| 2026-05-04 12:45 | 41.50724 | -101.58170 | 40809 ft | 488 kts | 89° |
| 2026-05-04 12:46 | 41.50638 | -101.49161 | 40808 ft | 487 kts | 89° |
| 2026-05-04 12:46 | 41.50544 | -101.40111 | 40808 ft | 487 kts | 89° |
| 2026-05-04 12:47 | 41.50445 | -101.31130 | 40792 ft | 488 kts | 90° |
| 2026-05-04 12:47 | 41.50337 | -101.22092 | 40801 ft | 487 kts | 90° |
| 2026-05-04 12:48 | 41.50222 | -101.13130 | 40790 ft | 487 kts | 90° |
| 2026-05-04 12:48 | 41.50101 | -101.04102 | 40792 ft | 488 kts | 90° |
| 2026-05-04 12:49 | 41.49972 | -100.95100 | 40789 ft | 487 kts | 90° |
| 2026-05-04 12:49 | 41.49836 | -100.86082 | 40789 ft | 488 kts | 89° |
| 2026-05-04 12:50 | 41.49694 | -100.77044 | 40789 ft | 487 kts | 90° |
| 2026-05-04 12:50 | 41.49543 | -100.68015 | 40783 ft | 487 kts | 90° |
| 2026-05-04 12:51 | 41.49388 | -100.59061 | 40784 ft | 487 kts | 90° |
| 2026-05-04 12:51 | 41.49223 | -100.50041 | 40781 ft | 486 kts | 89° |
| 2026-05-04 12:52 | 41.49053 | -100.41055 | 40780 ft | 487 kts | 89° |
| 2026-05-04 12:52 | 41.48876 | -100.32063 | 40772 ft | 488 kts | 90° |
| 2026-05-04 12:53 | 41.48691 | -100.23052 | 40760 ft | 487 kts | 90° |
| 2026-05-04 12:53 | 41.48500 | -100.14082 | 40770 ft | 488 kts | 90° |
| 2026-05-04 12:54 | 41.48301 | -100.05093 | 40780 ft | 488 kts | 90° |
| 2026-05-04 12:54 | 41.48095 | -99.96037 | 40778 ft | 487 kts | 90° |
| 2026-05-04 12:55 | 41.47881 | -99.87016 | 40770 ft | 487 kts | 90° |
| 2026-05-04 12:55 | 41.47662 | -99.78035 | 40759 ft | 487 kts | 90° |
| 2026-05-04 12:56 | 41.47435 | -99.69006 | 40752 ft | 488 kts | 90° |
| 2026-05-04 12:56 | 41.47200 | -99.59987 | 40752 ft | 487 kts | 90° |
| 2026-05-04 12:57 | 41.46960 | -99.51035 | 40751 ft | 486 kts | 90° |
| 2026-05-04 12:57 | 41.46713 | -99.42057 | 40766 ft | 488 kts | 90° |
| 2026-05-04 12:58 | 41.46458 | -99.33072 | 40755 ft | 489 kts | 91° |
| 2026-05-04 12:58 | 41.46194 | -99.23995 | 40748 ft | 487 kts | 91° |
| 2026-05-04 12:59 | 41.45927 | -99.15041 | 40746 ft | 487 kts | 91° |
| 2026-05-04 12:59 | 41.45650 | -99.06014 | 40751 ft | 487 kts | 91° |
| 2026-05-04 13:00 | 41.45367 | -98.97015 | 40737 ft | 485 kts | 91° |
| 2026-05-04 13:00 | 41.45079 | -98.88068 | 40738 ft | 486 kts | 91° |
| 2026-05-04 13:01 | 41.44782 | -98.79079 | 40729 ft | 485 kts | 91° |
| 2026-05-04 13:01 | 41.44479 | -98.70143 | 40728 ft | 485 kts | 91° |
| 2026-05-04 13:02 | 41.44170 | -98.61186 | 40726 ft | 484 kts | 91° |
| 2026-05-04 13:02 | 41.43854 | -98.52261 | 40733 ft | 484 kts | 91° |
| 2026-05-04 13:03 | 41.43531 | -98.43317 | 40738 ft | 483 kts | 91° |
| 2026-05-04 13:03 | 41.43203 | -98.34409 | 40731 ft | 482 kts | 91° |
| 2026-05-04 13:03 | 41.43036 | -98.29959 | 40475 ft | 489 kts | 92° |
| 2026-05-04 13:04 | 41.42866 | -98.25462 | 40376 ft | 479 kts | 92° |
| 2026-05-04 13:04 | 41.42697 | -98.21100 | 40352 ft | 466 kts | 92° |
| 2026-05-04 13:04 | 41.42531 | -98.16787 | 40025 ft | 461 kts | 91° |
| 2026-05-04 13:04 | 41.42366 | -98.12554 | 39360 ft | 461 kts | 92° |
| 2026-05-04 13:05 | 41.42201 | -98.08347 | 38771 ft | 459 kts | 92° |
| 2026-05-04 13:05 | 41.42032 | -98.04090 | 38041 ft | 459 kts | 91° |
| 2026-05-04 13:05 | 41.41861 | -97.99850 | 37283 ft | 458 kts | 91° |
| 2026-05-04 13:05 | 41.41692 | -97.95679 | 36553 ft | 458 kts | 91° |
| 2026-05-04 13:06 | 41.41519 | -97.91432 | 35977 ft | 457 kts | 91° |
| 2026-05-04 13:06 | 41.41347 | -97.87253 | 35346 ft | 458 kts | 91° |
| 2026-05-04 13:06 | 41.41172 | -97.83055 | 34736 ft | 458 kts | 91° |
| 2026-05-04 13:06 | 41.40993 | -97.78798 | 34093 ft | 458 kts | 91° |
| 2026-05-04 13:07 | 41.40817 | -97.74617 | 33398 ft | 458 kts | 91° |
| 2026-05-04 13:07 | 41.40636 | -97.70386 | 32682 ft | 458 kts | 91° |
| 2026-05-04 13:07 | 41.40455 | -97.66177 | 31939 ft | 459 kts | 91° |
| 2026-05-04 13:07 | 41.40270 | -97.61922 | 31219 ft | 458 kts | 91° |
| 2026-05-04 13:08 | 41.40086 | -97.57719 | 30482 ft | 458 kts | 91° |
| 2026-05-04 13:08 | 41.39902 | -97.53550 | 30011 ft | 451 kts | 91° |
| 2026-05-04 13:08 | 41.39717 | -97.49407 | 29349 ft | 449 kts | 91° |
| 2026-05-04 13:08 | 41.39532 | -97.45283 | 28858 ft | 442 kts | 91° |
| 2026-05-04 13:09 | 41.39350 | -97.41258 | 28378 ft | 431 kts | 91° |
| 2026-05-04 13:09 | 41.39171 | -97.37333 | 27905 ft | 431 kts | 91° |
| 2026-05-04 13:09 | 41.38988 | -97.33323 | 27119 ft | 440 kts | 92° |
| 2026-05-04 13:09 | 41.38802 | -97.29311 | 26217 ft | 424 kts | 92° |
| 2026-05-04 13:10 | 41.38623 | -97.25469 | 25418 ft | 417 kts | 92° |
| 2026-05-04 13:10 | 41.38443 | -97.21627 | 24630 ft | 419 kts | 92° |
| 2026-05-04 13:10 | 41.38260 | -97.17750 | 23838 ft | 416 kts | 92° |
| 2026-05-04 13:10 | 41.38079 | -97.13970 | 23050 ft | 411 kts | 92° |
| 2026-05-04 13:11 | 41.37897 | -97.10182 | 22257 ft | 406 kts | 92° |
| 2026-05-04 13:11 | 41.37718 | -97.06490 | 21482 ft | 402 kts | 92° |
| 2026-05-04 13:11 | 41.37540 | -97.02826 | 20714 ft | 398 kts | 92° |
| 2026-05-04 13:11 | 41.37362 | -96.99168 | 19939 ft | 392 kts | 92° |
| 2026-05-04 13:12 | 41.37185 | -96.95576 | 19174 ft | 388 kts | 92° |
| 2026-05-04 13:12 | 41.37008 | -96.92011 | 18411 ft | 384 kts | 92° |
| 2026-05-04 13:12 | 41.36834 | -96.88515 | 17669 ft | 382 kts | 92° |
| 2026-05-04 13:12 | 41.36536 | -96.85033 | 16939 ft | 379 kts | 101° |
| 2026-05-04 13:13 | 41.35976 | -96.81638 | 16226 ft | 376 kts | 102° |
| 2026-05-04 13:13 | 41.35413 | -96.78253 | 15545 ft | 372 kts | 102° |
| 2026-05-04 13:13 | 41.34850 | -96.74957 | 14882 ft | 369 kts | 102° |
| 2026-05-04 13:13 | 41.34283 | -96.71667 | 14247 ft | 366 kts | 103° |
| 2026-05-04 13:14 | 41.33710 | -96.68375 | 13560 ft | 362 kts | 103° |
| 2026-05-04 13:14 | 41.33152 | -96.65183 | 12942 ft | 356 kts | 103° |
| 2026-05-04 13:14 | 41.32595 | -96.62008 | 12331 ft | 352 kts | 103° |
| 2026-05-04 13:14 | 41.32042 | -96.58859 | 11716 ft | 349 kts | 102° |
| 2026-05-04 13:15 | 41.31491 | -96.55730 | 11089 ft | 345 kts | 102° |
| 2026-05-04 13:15 | 41.30954 | -96.52682 | 10485 ft | 341 kts | 102° |
| 2026-05-04 13:15 | 41.30411 | -96.49611 | 9887 ft | 336 kts | 102° |
| 2026-05-04 13:15 | 41.29898 | -96.46714 | 9613 ft | 311 kts | 102° |
| 2026-05-04 13:16 | 41.29417 | -96.44022 | 9189 ft | 290 kts | 102° |
| 2026-05-04 13:16 | 41.28933 | -96.41446 | 8813 ft | 294 kts | 103° |
| 2026-05-04 13:16 | 41.28427 | -96.38773 | 8445 ft | 297 kts | 103° |
| 2026-05-04 13:16 | 41.27935 | -96.36148 | 8127 ft | 296 kts | 103° |
| 2026-05-04 13:17 | 41.27439 | -96.33494 | 7832 ft | 295 kts | 103° |
| 2026-05-04 13:17 | 41.26948 | -96.30839 | 7514 ft | 293 kts | 103° |
| 2026-05-04 13:17 | 41.26467 | -96.28230 | 7163 ft | 290 kts | 103° |
| 2026-05-04 13:17 | 41.25990 | -96.25635 | 6716 ft | 286 kts | 103° |
| 2026-05-04 13:18 | 41.25526 | -96.23094 | 6333 ft | 283 kts | 103° |
| 2026-05-04 13:18 | 41.25064 | -96.20533 | 5954 ft | 282 kts | 103° |
| 2026-05-04 13:18 | 41.24621 | -96.18012 | 5580 ft | 278 kts | 103° |
| 2026-05-04 13:18 | 41.24195 | -96.15537 | 5209 ft | 275 kts | 103° |
| 2026-05-04 13:19 | 41.23782 | -96.13070 | 4840 ft | 271 kts | 103° |
| 2026-05-04 13:19 | 41.23388 | -96.10658 | 4478 ft | 269 kts | 103° |
| 2026-05-04 13:19 | 41.23004 | -96.08236 | 4113 ft | 266 kts | 103° |
| 2026-05-04 13:19 | 41.22640 | -96.05862 | 3765 ft | 262 kts | 103° |
| 2026-05-04 13:20 | 41.22290 | -96.03500 | 3678 ft | 259 kts | 103° |
| 2026-05-04 13:20 | 41.21936 | -96.01088 | 3725 ft | 268 kts | 103° |
| 2026-05-04 13:20 | 41.21581 | -95.98686 | 3676 ft | 261 kts | 103° |
| 2026-05-04 13:20 | 41.21236 | -95.96342 | 3682 ft | 260 kts | 103° |
| 2026-05-04 13:21 | 41.20887 | -95.93963 | 3686 ft | 262 kts | 103° |
| 2026-05-04 13:21 | 41.20540 | -95.91596 | 3683 ft | 261 kts | 103° |
| 2026-05-04 13:21 | 41.20192 | -95.89226 | 3683 ft | 261 kts | 103° |
| 2026-05-04 13:21 | 41.19846 | -95.86893 | 3685 ft | 260 kts | 103° |
| 2026-05-04 13:22 | 41.19599 | -95.84497 | 3681 ft | 262 kts | 88° |
| 2026-05-04 13:22 | 41.20055 | -95.82158 | 3701 ft | 266 kts | 68° |
| 2026-05-04 13:22 | 41.20795 | -95.79907 | 3679 ft | 266 kts | 66° |
| 2026-05-04 13:22 | 41.21546 | -95.77643 | 3675 ft | 264 kts | 66° |
| 2026-05-04 13:23 | 41.22288 | -95.75408 | 3676 ft | 265 kts | 66° |
| 2026-05-04 13:23 | 41.23033 | -95.73175 | 3673 ft | 266 kts | 66° |
| 2026-05-04 13:23 | 41.23783 | -95.70933 | 3675 ft | 265 kts | 66° |
| 2026-05-04 13:23 | 41.24531 | -95.68687 | 3673 ft | 266 kts | 66° |
| 2026-05-04 13:24 | 41.25231 | -95.66439 | 3659 ft | 256 kts | 76° |
| 2026-05-04 13:24 | 41.25266 | -95.64158 | 3613 ft | 238 kts | 109° |
| 2026-05-04 13:24 | 41.24468 | -95.62380 | 3626 ft | 217 kts | 138° |
| 2026-05-04 13:25 | 41.22279 | -95.59762 | 3252 ft | 209 kts | 142° |
| 2026-05-04 13:25 | 41.21194 | -95.58485 | 3006 ft | 210 kts | 141° |
| 2026-05-04 13:25 | 41.20090 | -95.57206 | 2739 ft | 211 kts | 141° |
| 2026-05-04 13:25 | 41.18988 | -95.55956 | 2739 ft | 210 kts | 142° |
| 2026-05-04 13:26 | 41.17724 | -95.55125 | 2721 ft | 196 kts | 174° |
| 2026-05-04 13:26 | 41.16416 | -95.55444 | 2488 ft | 188 kts | 214° |
| 2026-05-04 13:26 | 41.15646 | -95.56799 | 2529 ft | 194 kts | 254° |
| 2026-05-04 13:26 | 41.15597 | -95.58630 | 2517 ft | 201 kts | 267° |
| 2026-05-04 13:27 | 41.15335 | -95.60757 | 2488 ft | 202 kts | 257° |
| 2026-05-04 13:27 | 41.14809 | -95.64713 | 2482 ft | 213 kts | 259° |
| 2026-05-04 13:27 | 41.14578 | -95.66653 | 2485 ft | 212 kts | 260° |
| 2026-05-04 13:27 | 41.14352 | -95.68601 | 2489 ft | 217 kts | 260° |
| 2026-05-04 13:28 | 41.14124 | -95.70604 | 2487 ft | 221 kts | 260° |
| 2026-05-04 13:28 | 41.13899 | -95.72630 | 2482 ft | 221 kts | 261° |
| 2026-05-04 13:28 | 41.13968 | -95.74635 | 2479 ft | 223 kts | 291° |
| 2026-05-04 13:28 | 41.15010 | -95.76152 | 2507 ft | 228 kts | 332° |
| 2026-05-04 13:29 | 41.16500 | -95.76889 | 2495 ft | 231 kts | 336° |
| 2026-05-04 13:29 | 41.18423 | -95.78176 | 2477 ft | 222 kts | 328° |
| 2026-05-04 13:29 | 41.19791 | -95.79283 | 2486 ft | 226 kts | 325° |
| 2026-05-04 13:29 | 41.21124 | -95.80450 | 2483 ft | 228 kts | 324° |
| 2026-05-04 13:30 | 41.22399 | -95.81612 | 2465 ft | 211 kts | 323° |
| 2026-05-04 13:30 | 41.23514 | -95.82646 | 2465 ft | 184 kts | 322° |
| 2026-05-04 13:30 | 41.24596 | -95.83665 | 2195 ft | 189 kts | 323° |
| 2026-05-04 13:30 | 41.25621 | -95.84630 | 1955 ft | 174 kts | 323° |
| 2026-05-04 13:31 | 41.26566 | -95.85520 | 1718 ft | 156 kts | 323° |
| 2026-05-04 13:31 | 41.27403 | -95.86311 | 1498 ft | 141 kts | 324° |
| 2026-05-04 13:31 | 41.28176 | -95.87042 | 1250 ft | 131 kts | 323° |
| 2026-05-04 13:31 | 41.28989 | -95.87817 | 1130 ft | 153 kts | 324° |
| 2026-05-04 13:32 | 41.29856 | -95.88631 | 995 ft | 147 kts | 324° |
| 2026-05-04 13:32 | 41.30424 | -95.89162 | 986 ft | 36 kts | 324° |
| 2026-05-04 13:32 | 41.30661 | -95.89387 | 986 ft | 38 kts | 323° |
| 2026-05-04 13:32 | 41.30693 | -95.89444 | 986 ft | 3 kts | 252° |
| 2026-05-04 13:33 | 41.30671 | -95.89457 | 986 ft | 3 kts | 180° |
| 2026-05-04 13:33 | 41.30609 | -95.89455 | 986 ft | 17 kts | 179° |
| 2026-05-04 13:33 | 41.30465 | -95.89454 | 985 ft | 21 kts | 179° |
| 2026-05-04 13:33 | 41.30323 | -95.89453 | 984 ft | 16 kts | 180° |
| 2026-05-04 13:34 | 41.30283 | -95.89453 | 984 ft | 6 kts | 180° |
| 2026-05-04 13:34 | 41.30228 | -95.89453 | 984 ft | 9 kts | 180° |
| 2026-05-04 13:34 | 41.30145 | -95.89455 | 984 ft | 13 kts | 182° |
| 2026-05-04 13:34 | 41.30054 | -95.89458 | 984 ft | 11 kts | 179° |
| 2026-05-04 13:35 | 41.30018 | -95.89470 | 984 ft | 4 kts | 252° |
| 2026-05-04 13:35 | 41.30087 | -95.89555 | 983 ft | 7 kts | 323° |
| 2026-05-04 13:35 | 41.30109 | -95.89587 | 983 ft | 2 kts | 269° |
| 2026-05-04 13:36 | 41.30089 | -95.89600 | 983 ft | 6 kts | 182° |
| 2026-05-04 13:36 | 41.30030 | -95.89605 | 983 ft | 7 kts | 183° |
| 2026-05-04 13:36 | 41.29997 | -95.89637 | 983 ft | 5 kts | 264° |
| 2026-05-04 13:36 | 41.30001 | -95.89682 | 983 ft | 4 kts | 296° |
| 2026-05-04 13:37 | 41.30028 | -95.89728 | 983 ft | 7 kts | 310° |
| 2026-05-04 13:37 | 41.30054 | -95.89774 | 983 ft | 4 kts | 305° |
| 2026-05-04 13:37 | 41.30064 | -95.89793 | 983 ft | 0 kts | 305° |